createdAt,value
2023-02-26T00:00:04.072Z,1.93
2023-02-26T00:00:35.831Z,2.33
2023-02-26T00:01:16.150Z,2.47
2023-02-26T00:01:49.229Z,2.47
2023-02-26T00:02:21.224Z,2.67
2023-02-26T00:02:53.249Z,2.27
2023-02-26T00:03:25.086Z,2.23
2023-02-26T00:03:59.733Z,2.43
2023-02-26T00:04:32.050Z,2.57
2023-02-26T00:05:05.508Z,2.60
2023-02-26T00:05:37.426Z,2.43
2023-02-26T00:06:09.783Z,2.73
2023-02-26T00:06:56.860Z,2.70
2023-02-26T00:07:29.577Z,3.00
2023-02-26T00:08:01.616Z,2.80
2023-02-26T00:08:34.036Z,2.33
2023-02-26T00:09:06.576Z,2.10
2023-02-26T00:09:38.570Z,2.20
2023-02-26T00:10:13.122Z,2.37
2023-02-26T00:10:45.096Z,2.23
2023-02-26T00:11:17.288Z,2.07
2023-02-26T00:11:49.706Z,2.07
2023-02-26T00:12:22.034Z,2.43
2023-02-26T00:12:54.179Z,2.83
2023-02-26T00:13:26.306Z,3.33
2023-02-26T00:13:58.361Z,3.40
2023-02-26T00:14:30.674Z,3.23
2023-02-26T00:15:03.416Z,2.93
2023-02-26T00:15:35.438Z,3.23
2023-02-26T00:16:31.548Z,3.73
2023-02-26T00:17:23.109Z,5.10
2023-02-26T00:18:15.998Z,4.27
2023-02-26T00:18:48.049Z,4.37
2023-02-26T00:19:20.262Z,4.03
2023-02-26T00:19:52.344Z,3.80
2023-02-26T00:20:24.539Z,3.43
2023-02-26T00:20:56.514Z,2.73
2023-02-26T00:21:29.629Z,2.70
2023-02-26T00:22:01.686Z,2.97
2023-02-26T00:22:33.917Z,2.93
2023-02-26T00:23:05.978Z,2.73
2023-02-26T00:23:37.785Z,2.60
2023-02-26T00:24:09.526Z,2.67
2023-02-26T00:24:42.353Z,2.80
2023-02-26T00:25:14.501Z,3.20
2023-02-26T00:25:46.897Z,2.70
2023-02-26T00:26:19.159Z,2.77
2023-02-26T00:26:51.013Z,2.93
2023-02-26T00:27:22.944Z,2.90
2023-02-26T00:27:55.021Z,2.73
2023-02-26T00:28:27.158Z,2.70
2023-02-26T00:28:59.400Z,2.93
2023-02-26T00:29:31.406Z,2.73
2023-02-26T00:30:08.702Z,2.40
2023-02-26T00:30:41.067Z,2.33
2023-02-26T00:31:15.671Z,2.50
2023-02-26T00:31:47.928Z,2.47
2023-02-26T00:32:20.038Z,2.60
2023-02-26T00:32:52.185Z,3.13
2023-02-26T00:33:24.243Z,2.63
2023-02-26T00:33:57.781Z,2.43
2023-02-26T00:34:29.925Z,2.37
2023-02-26T00:35:02.191Z,2.47
2023-02-26T00:35:34.772Z,2.60
2023-02-26T00:36:37.531Z,2.80
2023-02-26T00:37:29.017Z,2.80
2023-02-26T00:38:03.090Z,2.97
2023-02-26T00:38:36.162Z,3.37
2023-02-26T00:39:18.965Z,2.37
2023-02-26T00:40:18.674Z,2.17
2023-02-26T00:40:54.224Z,1.87
2023-02-26T00:41:26.231Z,2.03
2023-02-26T00:41:58.102Z,2.20
2023-02-26T00:42:30.072Z,1.97
2023-02-26T00:43:05.133Z,2.13
2023-02-26T00:43:37.145Z,2.10
2023-02-26T00:44:09.251Z,1.90
2023-02-26T00:44:41.398Z,2.07
2023-02-26T00:45:14.605Z,2.17
2023-02-26T00:46:18.014Z,2.10
2023-02-26T00:47:14.078Z,1.87
2023-02-26T00:48:21.274Z,1.93
2023-02-26T00:49:16.351Z,1.90
2023-02-26T00:49:50.574Z,2.17
2023-02-26T00:50:25.234Z,2.33
2023-02-26T00:51:08.585Z,2.30
2023-02-26T00:51:51.676Z,2.37
2023-02-26T00:52:35.940Z,2.50
2023-02-26T00:53:27.270Z,2.63
2023-02-26T00:54:04.423Z,2.00
2023-02-26T00:54:36.515Z,2.13
2023-02-26T00:55:08.358Z,2.00
2023-02-26T00:55:40.150Z,2.00
2023-02-26T00:56:11.912Z,2.23
2023-02-26T00:56:43.705Z,2.27
2023-02-26T00:57:15.427Z,2.67
2023-02-26T00:57:47.294Z,2.23
2023-02-26T00:58:19.118Z,2.37
2023-02-26T00:58:50.886Z,2.60
2023-02-26T00:59:23.351Z,2.53
2023-02-26T00:59:55.141Z,2.67
2023-02-26T01:00:27.335Z,2.43
2023-02-26T01:01:00.364Z,2.97
2023-02-26T01:01:32.238Z,3.23
2023-02-26T01:02:04.060Z,2.83
2023-02-26T01:02:36.716Z,3.20
2023-02-26T01:03:08.806Z,3.27
2023-02-26T01:03:40.861Z,3.43
2023-02-26T01:04:13.918Z,3.47
2023-02-26T01:04:46.799Z,3.27
2023-02-26T01:05:19.547Z,3.13
2023-02-26T01:05:51.435Z,3.67
2023-02-26T01:06:29.113Z,3.73
2023-02-26T01:07:01.129Z,3.73
2023-02-26T01:07:54.604Z,3.43
2023-02-26T01:08:39.295Z,3.70
2023-02-26T01:09:19.933Z,3.53
2023-02-26T01:09:52.075Z,3.83
2023-02-26T01:10:24.162Z,4.00
2023-02-26T01:10:56.172Z,4.63
2023-02-26T01:11:28.156Z,4.63
2023-02-26T01:12:04.968Z,4.67
2023-02-26T01:12:37.294Z,4.70
2023-02-26T01:13:09.421Z,4.77
2023-02-26T01:13:41.437Z,4.63
2023-02-26T01:14:13.724Z,5.20
2023-02-26T01:14:47.658Z,5.87
2023-02-26T01:15:20.251Z,5.20
2023-02-26T01:15:59.141Z,5.07
2023-02-26T01:16:41.963Z,5.30
2023-02-26T01:17:29.752Z,5.17
2023-02-26T01:18:24.194Z,5.33
2023-02-26T01:19:30.777Z,4.97
2023-02-26T01:20:12.371Z,5.10
2023-02-26T01:20:49.776Z,4.83
2023-02-26T01:21:31.366Z,4.87
2023-02-26T01:22:30.829Z,4.33
2023-02-26T01:23:12.440Z,4.70
2023-02-26T01:23:50.014Z,4.17
2023-02-26T01:24:25.206Z,3.73
2023-02-26T01:25:13.519Z,3.77
2023-02-26T01:25:55.084Z,4.10
2023-02-26T01:26:29.359Z,3.80
2023-02-26T01:27:01.170Z,3.50
2023-02-26T01:27:33.303Z,3.60
2023-02-26T01:28:05.343Z,3.50
2023-02-26T01:28:37.362Z,4.03
2023-02-26T01:29:09.876Z,4.00
2023-02-26T01:29:41.839Z,3.70
2023-02-26T01:30:14.248Z,3.73
2023-02-26T01:30:46.744Z,3.40
2023-02-26T01:31:47.884Z,3.53
2023-02-26T01:32:23.970Z,3.40
2023-02-26T01:33:24.579Z,3.47
2023-02-26T01:34:14.661Z,3.47
2023-02-26T01:35:02.207Z,3.80
2023-02-26T01:35:46.083Z,3.67
2023-02-26T01:36:24.944Z,3.70
2023-02-26T01:37:14.160Z,4.03
2023-02-26T01:39:15.922Z,3.80
2023-02-26T01:39:53.491Z,4.10
2023-02-26T01:40:49.926Z,3.73
2023-02-26T01:41:28.973Z,3.53
2023-02-26T01:42:13.788Z,3.67
2023-02-26T01:42:51.328Z,3.23
2023-02-26T01:43:51.760Z,2.93
2023-02-26T01:44:55.971Z,3.40
2023-02-26T01:45:34.933Z,2.73
2023-02-26T01:46:35.261Z,2.63
2023-02-26T01:47:09.670Z,3.23
2023-02-26T01:47:54.517Z,3.03
2023-02-26T01:48:37.387Z,2.57
2023-02-26T01:49:16.013Z,2.67
2023-02-26T01:49:48.311Z,2.77
2023-02-26T01:50:25.778Z,2.80
2023-02-26T01:50:57.569Z,2.57
2023-02-26T01:51:46.225Z,2.80
2023-02-26T01:54:44.031Z,2.73
2023-02-26T01:55:28.934Z,3.03
2023-02-26T02:50:20.400Z,4.77
2023-02-26T02:50:59.533Z,5.03
2023-02-26T02:51:39.716Z,6.00
2023-02-26T02:52:20.890Z,5.87
2023-02-26T02:53:04.778Z,5.23
2023-02-26T02:53:57.334Z,5.03
2023-02-26T02:54:43.843Z,5.13
2023-02-26T02:55:22.529Z,5.80
2023-02-26T02:56:07.430Z,5.60
2023-02-26T02:56:47.747Z,4.73
2023-02-26T02:57:31.351Z,4.70
2023-02-26T02:58:21.184Z,4.37
2023-02-26T02:59:07.090Z,4.83
2023-02-26T02:59:53.964Z,4.83
2023-02-26T03:00:30.166Z,5.03
2023-02-26T03:01:09.950Z,5.43
2023-02-26T03:01:44.001Z,5.67
2023-02-26T03:02:32.028Z,5.40
2023-02-26T03:03:23.942Z,4.10
2023-02-26T03:04:05.681Z,4.00
2023-02-26T03:04:40.198Z,3.87
2023-02-26T03:05:13.467Z,3.83
2023-02-26T03:05:45.331Z,3.57
2023-02-26T03:06:17.980Z,3.20
2023-02-26T03:06:50.256Z,2.90
2023-02-26T03:07:22.076Z,3.10
2023-02-26T03:07:58.981Z,2.87
2023-02-26T03:08:38.589Z,2.83
2023-02-26T03:09:11.149Z,2.43
2023-02-26T03:09:43.831Z,2.03
2023-02-26T03:10:16.851Z,2.17
2023-02-26T03:10:48.630Z,2.27
2023-02-26T03:11:21.403Z,1.80
2023-02-26T03:11:53.161Z,1.67
2023-02-26T03:12:27.540Z,1.80
2023-02-26T03:12:59.901Z,1.63
2023-02-26T03:13:32.171Z,1.63
2023-02-26T03:14:05.704Z,2.03
2023-02-26T03:14:38.262Z,2.03
2023-02-26T03:15:10.780Z,1.77
2023-02-26T03:16:02.199Z,1.83
2023-02-26T03:16:36.653Z,1.73
2023-02-26T03:17:26.745Z,2.50
2023-02-26T03:18:13.264Z,6.17
2023-02-26T03:18:44.968Z,6.73
2023-02-26T03:19:41.185Z,6.37
2023-02-26T03:20:23.198Z,5.40
2023-02-26T03:21:16.371Z,4.10
2023-02-26T03:22:01.184Z,4.20
2023-02-26T03:22:43.599Z,3.10
2023-02-26T03:23:28.822Z,1.67
2023-02-26T03:24:30.440Z,1.23
2023-02-26T03:25:10.246Z,1.37
2023-02-26T03:25:52.101Z,1.37
2023-02-26T03:26:49.259Z,0.97
2023-02-26T03:27:31.451Z,1.10
2023-02-26T03:28:25.577Z,1.07
2023-02-26T03:29:38.689Z,0.97
2023-02-26T03:30:16.171Z,1.17
2023-02-26T03:31:17.779Z,1.30
2023-02-26T03:32:07.553Z,1.57
2023-02-26T03:33:03.796Z,1.27
2023-02-26T03:33:35.469Z,1.37
2023-02-26T03:34:39.479Z,1.57
2023-02-26T03:35:18.452Z,1.60
2023-02-26T03:35:53.242Z,1.40
2023-02-26T03:37:06.130Z,1.23
2023-02-26T03:37:47.028Z,1.23
2023-02-26T03:38:29.525Z,1.33
2023-02-26T03:39:15.527Z,1.53
2023-02-26T03:39:53.266Z,1.23
2023-02-26T03:40:31.668Z,1.33
2023-02-26T03:41:18.187Z,1.40
2023-02-26T03:41:56.725Z,2.50
2023-02-26T03:42:43.080Z,1.60
2023-02-26T03:43:29.089Z,1.37
2023-02-26T03:44:08.349Z,1.40
2023-02-26T03:44:53.269Z,1.40
2023-02-26T03:45:34.107Z,1.30
2023-02-26T03:46:12.183Z,1.63
2023-02-26T03:46:50.878Z,1.50
2023-02-26T03:47:23.618Z,1.33
2023-02-26T03:47:58.517Z,1.43
2023-02-26T03:48:34.243Z,1.73
2023-02-26T03:49:13.100Z,1.63
2023-02-26T03:50:01.799Z,1.40
2023-02-26T03:50:36.636Z,1.27
2023-02-26T03:51:12.804Z,1.30
2023-02-26T03:51:46.941Z,1.37
2023-02-26T03:52:23.345Z,1.30
2023-02-26T03:52:55.521Z,1.43
2023-02-26T03:53:46.077Z,1.33
2023-02-26T03:54:33.183Z,1.37
2023-02-26T03:55:13.253Z,1.27
2023-02-26T03:55:55.993Z,1.10
2023-02-26T03:56:46.859Z,1.27
2023-02-26T03:57:18.729Z,1.40
2023-02-26T03:57:50.664Z,1.43
2023-02-26T03:58:22.639Z,1.30
2023-02-26T03:58:54.450Z,1.33
2023-02-26T03:59:26.337Z,1.43
2023-02-26T03:59:59.178Z,1.13
2023-02-26T04:00:34.800Z,1.27
2023-02-26T04:01:14.759Z,1.10
2023-02-26T04:01:56.759Z,1.27
2023-02-26T04:02:47.373Z,1.13
2023-02-26T04:03:19.253Z,1.30
2023-02-26T04:04:02.382Z,1.10
2023-02-26T04:04:52.911Z,1.23
2023-02-26T04:05:33.416Z,1.30
2023-02-26T04:06:06.667Z,1.43
2023-02-26T04:06:39.757Z,1.50
2023-02-26T04:07:14.555Z,1.47
2023-02-26T04:07:48.486Z,1.97
2023-02-26T04:08:22.760Z,1.67
2023-02-26T04:08:54.860Z,1.60
2023-02-26T04:09:27.291Z,1.67
2023-02-26T04:09:59.236Z,1.77
2023-02-26T04:10:38.508Z,1.83
2023-02-26T04:11:17.426Z,1.90
2023-02-26T04:11:51.418Z,2.03
2023-02-26T04:12:26.162Z,2.20
2023-02-26T04:13:02.318Z,2.50
2023-02-26T04:13:34.235Z,2.40
2023-02-26T04:14:06.081Z,2.47
2023-02-26T04:14:38.030Z,2.30
2023-02-26T04:15:10.507Z,2.17
2023-02-26T04:15:42.240Z,2.53
2023-02-26T04:16:15.505Z,2.47
2023-02-26T04:16:48.539Z,2.37
2023-02-26T04:17:20.380Z,2.37
2023-02-26T04:17:52.165Z,2.23
2023-02-26T04:18:24.001Z,2.37
2023-02-26T04:18:55.809Z,2.57
2023-02-26T04:19:27.702Z,2.40
2023-02-26T04:19:59.514Z,2.23
2023-02-26T04:20:31.337Z,2.23
2023-02-26T04:21:03.240Z,2.03
2023-02-26T04:21:35.108Z,2.23
2023-02-26T04:22:06.918Z,2.10
2023-02-26T04:22:38.840Z,2.03
2023-02-26T04:23:10.629Z,1.90
2023-02-26T04:23:42.464Z,1.97
2023-02-26T04:24:14.226Z,2.60
2023-02-26T04:24:45.976Z,2.50
2023-02-26T04:25:17.797Z,2.47
2023-02-26T04:25:49.568Z,2.23
2023-02-26T04:26:21.398Z,1.90
2023-02-26T04:26:53.142Z,1.80
2023-02-26T04:27:24.851Z,1.83
2023-02-26T04:27:57.934Z,1.90
2023-02-26T04:28:30.276Z,1.83
2023-02-26T04:29:02.097Z,1.87
2023-02-26T04:29:33.847Z,1.73
2023-02-26T04:30:06.398Z,1.53
2023-02-26T04:30:38.171Z,1.60
2023-02-26T04:31:10.696Z,1.87
2023-02-26T04:31:42.647Z,1.80
2023-02-26T04:32:14.607Z,1.63
2023-02-26T04:32:46.579Z,1.53
2023-02-26T04:33:18.358Z,1.80
2023-02-26T04:33:50.140Z,1.60
2023-02-26T04:34:21.877Z,1.40
2023-02-26T04:34:54.089Z,1.50
2023-02-26T04:35:25.927Z,1.30
2023-02-26T04:35:58.628Z,1.70
2023-02-26T04:36:30.425Z,1.80
2023-02-26T04:37:02.178Z,1.73
2023-02-26T04:37:34.021Z,1.63
2023-02-26T04:38:05.901Z,1.50
2023-02-26T04:38:37.687Z,1.37
2023-02-26T04:39:10.860Z,1.27
2023-02-26T04:39:42.707Z,1.70
2023-02-26T04:40:14.448Z,1.67
2023-02-26T04:40:47.161Z,1.43
2023-02-26T04:41:18.937Z,1.43
2023-02-26T04:41:50.727Z,1.37
2023-02-26T04:42:22.632Z,1.30
2023-02-26T04:42:54.380Z,1.53
2023-02-26T04:43:26.235Z,1.43
2023-02-26T04:43:58.052Z,1.27
2023-02-26T04:44:30.181Z,1.13
2023-02-26T04:45:02.037Z,1.37
2023-02-26T04:45:33.795Z,1.47
2023-02-26T04:46:05.751Z,1.47
2023-02-26T04:46:37.682Z,1.40
2023-02-26T04:47:09.512Z,1.47
2023-02-26T04:47:41.342Z,1.37
2023-02-26T04:48:14.804Z,1.57
2023-02-26T04:48:46.780Z,1.47
2023-02-26T04:49:18.526Z,1.37
2023-02-26T04:49:50.322Z,1.70
2023-02-26T04:50:22.070Z,1.53
2023-02-26T04:50:53.834Z,1.33
2023-02-26T04:51:26.044Z,1.33
2023-02-26T04:51:57.832Z,1.43
2023-02-26T04:52:29.602Z,1.40
2023-02-26T04:53:01.338Z,1.43
2023-02-26T04:53:33.217Z,1.63
2023-02-26T04:54:05.145Z,1.53
2023-02-26T04:54:38.031Z,1.87
2023-02-26T04:55:10.100Z,1.57
2023-02-26T04:55:42.173Z,1.73
2023-02-26T04:56:14.554Z,1.67
2023-02-26T04:56:46.292Z,1.90
2023-02-26T04:57:18.090Z,2.07
2023-02-26T04:57:49.847Z,1.87
2023-02-26T04:58:21.820Z,1.83
2023-02-26T04:58:53.623Z,1.73
2023-02-26T04:59:25.449Z,1.77
2023-02-26T04:59:57.192Z,1.63
2023-02-26T05:00:29.230Z,1.77
2023-02-26T05:01:01.013Z,1.93
2023-02-26T05:01:33.042Z,1.93
2023-02-26T05:02:05.899Z,2.00
2023-02-26T05:02:37.837Z,1.57
2023-02-26T05:03:10.091Z,1.57
2023-02-26T05:03:41.883Z,1.97
2023-02-26T05:04:13.662Z,1.87
2023-02-26T05:04:45.411Z,1.77
2023-02-26T05:05:17.511Z,1.70
2023-02-26T05:05:49.242Z,1.67
2023-02-26T05:06:21.002Z,1.87
2023-02-26T05:06:52.771Z,1.73
2023-02-26T05:07:24.565Z,1.90
2023-02-26T05:07:56.900Z,1.87
2023-02-26T05:08:28.686Z,1.73
2023-02-26T05:09:00.396Z,1.67
2023-02-26T05:09:32.128Z,1.80
2023-02-26T05:10:06.016Z,1.67
2023-02-26T05:10:37.878Z,1.83
2023-02-26T05:11:10.893Z,1.87
2023-02-26T05:11:42.961Z,1.73
2023-02-26T05:12:14.739Z,1.43
2023-02-26T05:12:46.486Z,1.43
2023-02-26T05:13:19.726Z,1.70
2023-02-26T05:13:51.450Z,1.60
2023-02-26T05:14:23.232Z,1.70
2023-02-26T05:14:55.041Z,1.60
2023-02-26T05:15:26.813Z,1.53
2023-02-26T05:15:58.570Z,1.77
2023-02-26T05:16:30.587Z,1.63
2023-02-26T05:17:02.511Z,1.53
2023-02-26T05:17:35.399Z,1.40
2023-02-26T05:18:07.166Z,1.50
2023-02-26T05:18:39.210Z,1.43
2023-02-26T05:19:10.976Z,1.57
2023-02-26T05:19:42.811Z,1.83
2023-02-26T05:20:15.583Z,1.80
2023-02-26T05:20:52.828Z,1.67
2023-02-26T05:21:26.221Z,1.73
2023-02-26T05:21:58.192Z,2.07
2023-02-26T05:22:29.983Z,2.07
2023-02-26T05:23:01.826Z,2.03
2023-02-26T05:23:33.850Z,2.20
2023-02-26T05:24:05.831Z,2.20
2023-02-26T05:24:37.658Z,2.23
2023-02-26T05:25:12.626Z,2.53
2023-02-26T05:25:44.384Z,2.30
2023-02-26T05:26:16.131Z,2.00
2023-02-26T05:26:47.934Z,2.37
2023-02-26T05:27:19.753Z,2.43
2023-02-26T05:27:51.505Z,2.50
2023-02-26T05:28:24.454Z,2.73
2023-02-26T05:28:56.199Z,2.43
2023-02-26T05:29:27.957Z,2.23
2023-02-26T05:30:00.021Z,2.47
2023-02-26T05:30:31.922Z,2.50
2023-02-26T05:31:04.343Z,2.53
2023-02-26T05:31:36.179Z,2.67
2023-02-26T05:32:08.648Z,3.10
2023-02-26T05:32:40.787Z,3.33
2023-02-26T05:33:12.537Z,3.13
2023-02-26T05:33:45.003Z,3.30
2023-02-26T05:34:16.822Z,4.07
2023-02-26T05:34:48.583Z,3.70
2023-02-26T05:35:20.445Z,3.60
2023-02-26T05:35:52.587Z,3.40
2023-02-26T05:36:24.806Z,3.73
2023-02-26T05:36:56.733Z,3.57
2023-02-26T05:37:28.505Z,3.63
2023-02-26T05:38:00.305Z,3.93
2023-02-26T05:38:32.043Z,3.93
2023-02-26T05:39:03.900Z,3.57
2023-02-26T05:39:35.711Z,3.67
2023-02-26T05:40:12.876Z,3.43
2023-02-26T05:40:44.765Z,3.53
2023-02-26T05:41:16.626Z,4.03
2023-02-26T05:41:48.434Z,3.73
2023-02-26T05:42:20.201Z,3.60
2023-02-26T05:42:52.180Z,4.20
2023-02-26T05:43:24.553Z,4.07
2023-02-26T05:43:56.322Z,3.93
2023-02-26T05:44:28.413Z,3.23
2023-02-26T05:45:00.144Z,3.23
2023-02-26T05:45:31.905Z,3.17
2023-02-26T05:46:03.682Z,3.33
2023-02-26T05:46:35.465Z,3.17
2023-02-26T05:47:07.238Z,3.47
2023-02-26T05:47:39.035Z,3.50
2023-02-26T05:48:11.282Z,3.60
2023-02-26T05:48:45.623Z,3.33
2023-02-26T05:49:17.786Z,3.33
2023-02-26T05:49:50.560Z,3.00
2023-02-26T05:50:22.425Z,2.17
2023-02-26T05:50:54.157Z,2.30
2023-02-26T05:51:25.968Z,2.43
2023-02-26T05:51:57.750Z,2.53
2023-02-26T05:52:29.604Z,2.33
2023-02-26T05:53:01.881Z,2.57
2023-02-26T05:53:33.645Z,2.20
2023-02-26T05:54:06.097Z,2.40
2023-02-26T05:54:37.841Z,2.17
2023-02-26T05:55:10.334Z,1.87
2023-02-26T05:55:42.293Z,1.70
2023-02-26T05:56:14.727Z,1.97
2023-02-26T05:56:47.685Z,2.07
2023-02-26T05:57:19.527Z,2.20
2023-02-26T05:57:51.295Z,1.83
2023-02-26T05:58:23.003Z,1.97
2023-02-26T05:58:55.005Z,2.00
2023-02-26T05:59:26.807Z,2.03
2023-02-26T05:59:58.591Z,2.33
2023-02-26T06:00:30.988Z,2.83
2023-02-26T06:01:03.127Z,2.23
2023-02-26T06:01:35.007Z,2.20
2023-02-26T06:02:06.870Z,2.13
2023-02-26T06:02:38.797Z,1.80
2023-02-26T06:03:10.631Z,2.13
2023-02-26T06:03:44.350Z,2.07
2023-02-26T06:04:16.155Z,2.10
2023-02-26T06:04:48.540Z,2.07
2023-02-26T06:05:20.303Z,2.30
2023-02-26T06:05:52.120Z,2.50
2023-02-26T06:06:25.728Z,2.53
2023-02-26T06:06:57.641Z,2.27
2023-02-26T06:07:29.418Z,2.37
2023-02-26T06:08:01.192Z,2.67
2023-02-26T06:08:32.947Z,2.80
2023-02-26T06:09:04.681Z,2.70
2023-02-26T06:09:36.388Z,2.43
2023-02-26T06:10:09.306Z,2.53
2023-02-26T06:10:41.163Z,2.67
2023-02-26T06:11:13.526Z,2.77
2023-02-26T06:11:45.343Z,2.40
2023-02-26T06:12:17.120Z,2.47
2023-02-26T06:12:48.882Z,2.47
2023-02-26T06:13:20.780Z,2.53
2023-02-26T06:13:52.703Z,2.40
2023-02-26T06:14:24.526Z,2.57
2023-02-26T06:14:56.316Z,2.60
2023-02-26T06:15:28.069Z,2.50
2023-02-26T06:15:59.907Z,2.67
2023-02-26T06:16:32.902Z,2.80
2023-02-26T06:17:05.499Z,2.87
2023-02-26T06:17:40.511Z,3.30
2023-02-26T06:18:12.523Z,2.67
2023-02-26T06:18:44.375Z,2.87
2023-02-26T06:19:16.184Z,2.97
2023-02-26T06:19:47.995Z,3.17
2023-02-26T06:20:19.800Z,3.13
2023-02-26T06:20:51.548Z,3.23
2023-02-26T06:21:23.308Z,3.47
2023-02-26T06:21:55.174Z,3.77
2023-02-26T06:22:26.930Z,3.57
2023-02-26T06:22:58.750Z,3.17
2023-02-26T06:23:30.490Z,3.40
2023-02-26T06:24:02.297Z,3.23
2023-02-26T06:24:34.062Z,3.23
2023-02-26T06:25:06.361Z,3.37
2023-02-26T06:25:38.091Z,3.77
2023-02-26T06:26:10.436Z,3.30
2023-02-26T06:26:42.268Z,3.20
2023-02-26T06:27:14.191Z,3.10
2023-02-26T06:27:45.992Z,3.70
2023-02-26T06:28:17.761Z,3.73
2023-02-26T06:28:49.509Z,3.57
2023-02-26T06:29:21.484Z,3.20
2023-02-26T06:29:53.256Z,2.90
2023-02-26T06:30:25.128Z,3.13
2023-02-26T06:30:57.124Z,2.93
2023-02-26T06:31:29.002Z,2.93
2023-02-26T06:32:00.874Z,3.13
2023-02-26T06:32:32.714Z,3.27
2023-02-26T06:33:04.470Z,3.10
2023-02-26T06:33:36.686Z,3.20
2023-02-26T06:34:08.449Z,3.00
2023-02-26T06:34:40.285Z,2.93
2023-02-26T06:35:12.078Z,3.13
2023-02-26T06:35:43.850Z,3.53
2023-02-26T06:36:15.666Z,3.93
2023-02-26T06:36:47.470Z,4.07
2023-02-26T06:37:19.205Z,4.50
2023-02-26T06:37:51.007Z,4.43
2023-02-26T06:38:22.761Z,3.83
2023-02-26T06:38:54.538Z,3.67
2023-02-26T06:39:26.489Z,3.47
2023-02-26T06:39:58.275Z,3.63
2023-02-26T06:40:31.442Z,3.53
2023-02-26T06:41:03.293Z,2.93
2023-02-26T06:41:35.151Z,2.93
2023-02-26T06:42:06.966Z,2.93
2023-02-26T06:42:38.746Z,3.20
2023-02-26T06:43:10.605Z,3.20
2023-02-26T06:43:42.424Z,3.03
2023-02-26T06:44:14.307Z,2.67
2023-02-26T06:44:46.016Z,3.10
2023-02-26T06:45:17.764Z,3.53
2023-02-26T06:45:49.704Z,3.80
2023-02-26T06:46:21.752Z,2.93
2023-02-26T06:46:53.508Z,3.07
2023-02-26T06:47:25.299Z,3.20
2023-02-26T06:47:57.083Z,3.43
2023-02-26T06:48:29.046Z,3.17
2023-02-26T06:49:00.751Z,3.40
2023-02-26T06:49:32.685Z,3.40
2023-02-26T06:50:05.257Z,3.47
2023-02-26T06:50:37.171Z,3.50
2023-02-26T06:51:09.891Z,3.80
2023-02-26T06:51:41.742Z,3.73
2023-02-26T06:52:13.498Z,3.63
2023-02-26T06:52:45.305Z,3.87
2023-02-26T06:53:19.033Z,3.70
2023-02-26T06:53:50.840Z,3.60
2023-02-26T06:54:23.301Z,4.27
2023-02-26T06:54:55.076Z,3.77
2023-02-26T06:55:27.106Z,4.10
2023-02-26T06:55:58.817Z,3.67
2023-02-26T06:56:30.620Z,3.40
2023-02-26T06:57:03.333Z,3.83
2023-02-26T06:57:35.167Z,3.93
2023-02-26T06:58:06.926Z,3.60
2023-02-26T06:58:38.657Z,4.13
2023-02-26T06:59:10.462Z,4.13
2023-02-26T06:59:42.284Z,4.10
2023-02-26T07:00:14.481Z,4.57
2023-02-26T07:00:46.510Z,4.30
2023-02-26T07:01:18.530Z,4.13
2023-02-26T07:01:50.871Z,4.27
2023-02-26T07:02:23.673Z,4.43
2023-02-26T07:02:55.504Z,4.33
2023-02-26T07:03:27.514Z,5.30
2023-02-26T07:03:59.320Z,4.70
2023-02-26T07:04:31.138Z,4.17
2023-02-26T07:05:02.916Z,4.03
2023-02-26T07:05:34.712Z,4.47
2023-02-26T07:06:25.958Z,3.83
2023-02-26T07:07:00.009Z,4.20
2023-02-26T07:07:31.779Z,4.30
2023-02-26T07:08:05.528Z,4.40
2023-02-26T07:08:37.286Z,4.37
2023-02-26T07:09:09.072Z,4.37
2023-02-26T07:09:40.866Z,4.20
2023-02-26T07:10:12.944Z,4.23
2023-02-26T07:10:47.441Z,4.07
2023-02-26T07:11:19.276Z,4.53
2023-02-26T07:11:51.063Z,4.27
2023-02-26T07:12:22.815Z,4.30
2023-02-26T07:12:54.639Z,4.20
2023-02-26T07:13:26.451Z,4.60
2023-02-26T07:13:58.191Z,4.37
2023-02-26T07:14:31.052Z,5.40
2023-02-26T07:15:02.797Z,5.63
2023-02-26T07:15:34.610Z,5.53
2023-02-26T07:16:07.644Z,5.77
2023-02-26T07:16:39.559Z,5.23
2023-02-26T07:17:20.386Z,4.80
2023-02-26T07:17:52.350Z,5.23
2023-02-26T07:18:24.091Z,5.23
2023-02-26T07:18:55.875Z,5.50
2023-02-26T07:19:28.030Z,5.37
2023-02-26T07:20:00.800Z,4.83
2023-02-26T07:20:34.183Z,5.00
2023-02-26T07:21:06.338Z,5.07
2023-02-26T07:21:38.160Z,6.13
2023-02-26T07:22:09.899Z,5.97
2023-02-26T07:22:41.728Z,6.37
2023-02-26T07:23:13.512Z,5.97
2023-02-26T07:23:45.311Z,6.37
2023-02-26T07:24:17.721Z,5.77
2023-02-26T07:24:51.370Z,5.70
2023-02-26T07:25:23.225Z,6.10
2023-02-26T07:25:55.391Z,7.57
2023-02-26T07:26:27.510Z,7.47
2023-02-26T07:26:59.408Z,5.77
2023-02-26T07:27:33.402Z,5.83
2023-02-26T07:28:05.522Z,5.87
2023-02-26T07:28:37.364Z,6.20
2023-02-26T07:29:09.258Z,6.97
2023-02-26T07:29:41.126Z,6.10
2023-02-26T07:30:13.571Z,6.43
2023-02-26T07:30:45.417Z,6.93
2023-02-26T07:31:17.406Z,6.90
2023-02-26T07:31:49.258Z,6.40
2023-02-26T07:32:22.080Z,6.93
2023-02-26T07:32:54.610Z,8.33
2023-02-26T07:33:28.515Z,7.90
2023-02-26T07:34:00.301Z,8.43
2023-02-26T07:34:32.637Z,7.77
2023-02-26T07:35:05.130Z,7.40
2023-02-26T07:35:37.012Z,8.73
2023-02-26T07:36:08.858Z,8.33
2023-02-26T07:36:40.684Z,8.13
2023-02-26T07:37:12.560Z,8.70
2023-02-26T07:37:44.550Z,7.30
2023-02-26T07:38:17.947Z,7.60
2023-02-26T07:38:50.984Z,7.43
2023-02-26T07:39:22.864Z,7.50
2023-02-26T07:39:55.067Z,8.77
2023-02-26T07:40:26.876Z,14.57
2023-02-26T07:40:58.698Z,12.50
2023-02-26T07:41:30.463Z,13.63
2023-02-26T07:42:02.232Z,11.93
2023-02-26T07:42:34.077Z,16.77
2023-02-26T07:43:06.042Z,16.73
2023-02-26T07:43:37.990Z,12.17
2023-02-26T07:44:09.802Z,13.50
2023-02-26T07:44:41.617Z,10.80
2023-02-26T07:45:13.412Z,10.73
2023-02-26T07:45:45.243Z,11.40
2023-02-26T07:46:17.165Z,14.00
2023-02-26T07:46:49.080Z,12.13
2023-02-26T07:47:20.821Z,9.77
2023-02-26T07:47:53.274Z,11.10
2023-02-26T07:48:25.068Z,16.43
2023-02-26T07:48:56.790Z,13.50
2023-02-26T07:49:28.606Z,10.77
2023-02-26T07:50:00.722Z,10.03
2023-02-26T07:50:33.760Z,10.43
2023-02-26T07:51:07.950Z,8.93
2023-02-26T07:51:41.002Z,9.13
2023-02-26T07:52:12.843Z,9.73
2023-02-26T07:52:44.645Z,9.17
2023-02-26T07:53:17.021Z,9.93
2023-02-26T07:53:49.221Z,9.60
2023-02-26T07:54:20.995Z,9.57
2023-02-26T07:54:53.055Z,9.53
2023-02-26T07:55:24.801Z,9.53
2023-02-26T07:55:56.541Z,9.90
2023-02-26T07:56:28.538Z,9.77
2023-02-26T07:57:00.652Z,9.83
2023-02-26T07:57:32.467Z,9.33
2023-02-26T07:58:04.398Z,9.83
2023-02-26T07:58:36.129Z,9.53
2023-02-26T07:59:07.886Z,9.63
2023-02-26T07:59:39.770Z,9.20
2023-02-26T08:00:12.502Z,9.27
2023-02-26T08:00:44.474Z,8.93
2023-02-26T08:01:16.787Z,9.33
2023-02-26T08:01:48.744Z,10.30
2023-02-26T08:02:20.604Z,10.17
2023-02-26T08:02:52.358Z,10.27
2023-02-26T08:03:24.145Z,10.33
2023-02-26T08:03:55.902Z,11.83
2023-02-26T08:04:27.841Z,11.60
2023-02-26T08:04:59.715Z,13.57
2023-02-26T08:05:31.619Z,12.57
2023-02-26T08:06:05.036Z,10.20
2023-02-26T08:06:36.939Z,11.23
2023-02-26T08:07:08.734Z,10.77
2023-02-26T08:07:40.501Z,10.90
2023-02-26T08:08:12.358Z,10.83
2023-02-26T08:08:44.234Z,10.73
2023-02-26T08:09:16.149Z,11.10
2023-02-26T08:09:48.018Z,11.50
2023-02-26T08:10:19.871Z,11.37
2023-02-26T08:10:51.814Z,11.07
2023-02-26T08:11:23.619Z,10.37
2023-02-26T08:11:55.372Z,11.10
2023-02-26T08:12:27.199Z,11.37
2023-02-26T08:12:59.031Z,11.43
2023-02-26T08:13:31.252Z,11.70
2023-02-26T08:14:03.718Z,11.47
2023-02-26T08:14:35.536Z,12.03
2023-02-26T08:15:07.978Z,12.23
2023-02-26T08:15:41.757Z,12.10
2023-02-26T08:16:13.966Z,11.97
2023-02-26T08:16:45.874Z,11.70
2023-02-26T08:17:17.612Z,10.80
2023-02-26T08:17:55.949Z,10.77
2023-02-26T08:18:27.706Z,11.97
2023-02-26T08:18:59.515Z,10.50
2023-02-26T08:19:31.327Z,10.97
2023-02-26T08:20:05.231Z,12.07
2023-02-26T08:20:37.105Z,11.50
2023-02-26T08:21:08.969Z,10.67
2023-02-26T08:21:40.751Z,11.43
2023-02-26T08:22:12.555Z,11.87
2023-02-26T08:22:44.321Z,11.67
2023-02-26T08:23:16.197Z,12.07
2023-02-26T08:23:49.064Z,11.43
2023-02-26T08:24:21.480Z,10.47
2023-02-26T08:24:53.256Z,10.63
2023-02-26T08:25:25.054Z,10.60
2023-02-26T08:26:05.582Z,10.87
2023-02-26T08:26:38.283Z,10.13
2023-02-26T08:27:11.708Z,9.80
2023-02-26T08:27:44.647Z,11.43
2023-02-26T08:28:16.623Z,11.83
2023-02-26T08:28:48.746Z,11.67
2023-02-26T08:29:20.981Z,12.43
2023-02-26T08:29:52.864Z,13.20
2023-02-26T08:30:25.332Z,12.33
2023-02-26T08:30:57.208Z,12.50
2023-02-26T08:31:29.388Z,11.97
2023-02-26T08:32:01.314Z,12.30
2023-02-26T08:32:33.334Z,11.60
2023-02-26T08:33:05.665Z,11.17
2023-02-26T08:33:37.438Z,13.13
2023-02-26T08:34:09.598Z,12.83
2023-02-26T08:34:41.389Z,11.70
2023-02-26T08:35:13.223Z,11.70
2023-02-26T08:35:45.292Z,12.03
2023-02-26T08:36:17.061Z,11.93
2023-02-26T08:36:50.425Z,11.97
2023-02-26T08:37:24.762Z,11.93
2023-02-26T08:37:56.605Z,11.77